sensor_id;sensor_type;location;lat;lon;timestamp;pressure;altitude;pressure_sealevel;temperature
71897;BMP280;59767;51.344;12.362;2023-05-10T00:00:02;161946.56;;;12.81
71897;BMP280;59767;51.344;12.362;2023-05-10T00:03:08;161917.78;;;12.70
71897;BMP280;59767;51.344;12.362;2023-05-10T00:06:12;161898.13;;;12.62
71897;BMP280;59767;51.344;12.362;2023-05-10T00:09:16;161890.25;;;12.59
71897;BMP280;59767;51.344;12.362;2023-05-10T00:12:20;161864.09;;;12.49
71897;BMP280;59767;51.344;12.362;2023-05-10T00:15:24;161856.22;;;12.46
71897;BMP280;59767;51.344;12.362;2023-05-10T00:18:28;161888.94;;;12.59
71897;BMP280;59767;51.344;12.362;2023-05-10T00:21:32;161874.50;;;12.53
71897;BMP280;59767;51.344;12.362;2023-05-10T00:24:37;161871.91;;;12.52
71897;BMP280;59767;51.344;12.362;2023-05-10T00:27:41;161849.66;;;12.44
71897;BMP280;59767;51.344;12.362;2023-05-10T00:30:45;161849.66;;;12.44
71897;BMP280;59767;51.344;12.362;2023-05-10T00:33:49;161827.44;;;12.35
71897;BMP280;59767;51.344;12.362;2023-05-10T00:36:53;161854.88;;;12.46
71897;BMP280;59767;51.344;12.362;2023-05-10T00:39:57;161839.19;;;12.40
71897;BMP280;59767;51.344;12.362;2023-05-10T00:43:01;161813.00;;;12.30
71897;BMP280;59767;51.344;12.362;2023-05-10T00:46:06;161815.63;;;12.31
71897;BMP280;59767;51.344;12.362;2023-05-10T00:49:10;161792.06;;;12.22
71897;BMP280;59767;51.344;12.362;2023-05-10T00:52:14;161790.72;;;12.21
71897;BMP280;59767;51.344;12.362;2023-05-10T00:55:19;161772.41;;;12.14
71897;BMP280;59767;51.344;12.362;2023-05-10T00:58:24;161780.28;;;12.17
71897;BMP280;59767;51.344;12.362;2023-05-10T01:01:31;161772.41;;;12.14
71897;BMP280;59767;51.344;12.362;2023-05-10T01:04:36;161782.84;;;12.18
71897;BMP280;59767;51.344;12.362;2023-05-10T01:07:41;161751.47;;;12.06
71897;BMP280;59767;51.344;12.362;2023-05-10T01:10:45;161755.41;;;12.08
71897;BMP280;59767;51.344;12.362;2023-05-10T01:13:56;161754.06;;;12.07
71897;BMP280;59767;51.344;12.362;2023-05-10T01:17:00;161751.47;;;12.06
71897;BMP280;59767;51.344;12.362;2023-05-10T01:20:07;161767.16;;;12.12
71897;BMP280;59767;51.344;12.362;2023-05-10T01:26:55;161758.00;;;12.09
71897;BMP280;59767;51.344;12.362;2023-05-10T01:30:33;161758.00;;;12.09
71897;BMP280;59767;51.344;12.362;2023-05-10T01:37:04;161764.56;;;12.11
71897;BMP280;59767;51.344;12.362;2023-05-10T01:47:10;161785.50;;;12.19
71897;BMP280;59767;51.344;12.362;2023-05-10T01:50:18;161784.16;;;12.19
71897;BMP280;59767;51.344;12.362;2023-05-10T01:53:24;161789.44;;;12.21
71897;BMP280;59767;51.344;12.362;2023-05-10T01:56:30;161823.47;;;12.34
71897;BMP280;59767;51.344;12.362;2023-05-10T01:59:36;161813.00;;;12.30
71897;BMP280;59767;51.344;12.362;2023-05-10T02:02:46;161794.69;;;12.23
71897;BMP280;59767;51.344;12.362;2023-05-10T02:05:51;161778.97;;;12.17
71897;BMP280;59767;51.344;12.362;2023-05-10T02:08:57;161777.69;;;12.16
71897;BMP280;59767;51.344;12.362;2023-05-10T02:12:02;161769.81;;;12.13
71897;BMP280;59767;51.344;12.362;2023-05-10T02:15:08;161747.53;;;12.05
71897;BMP280;59767;51.344;12.362;2023-05-10T02:18:15;161760.66;;;12.10
71897;BMP280;59767;51.344;12.362;2023-05-10T02:21:21;161781.56;;;12.18
71897;BMP280;59767;51.344;12.362;2023-05-10T02:24:26;161765.81;;;12.12
71897;BMP280;59767;51.344;12.362;2023-05-10T02:27:31;161778.97;;;12.17
71897;BMP280;59767;51.344;12.362;2023-05-10T02:30:35;161802.53;;;12.26
71897;BMP280;59767;51.344;12.362;2023-05-10T02:33:40;161799.88;;;12.25
71897;BMP280;59767;51.344;12.362;2023-05-10T02:36:45;161801.19;;;12.25
71897;BMP280;59767;51.344;12.362;2023-05-10T02:39:50;161781.56;;;12.18
71897;BMP280;59767;51.344;12.362;2023-05-10T02:42:56;161794.69;;;12.23
71897;BMP280;59767;51.344;12.362;2023-05-10T02:46:00;161773.75;;;12.15
71897;BMP280;59767;51.344;12.362;2023-05-10T02:49:08;161792.06;;;12.22
71897;BMP280;59767;51.344;12.362;2023-05-10T02:52:18;161807.75;;;12.28
71897;BMP280;59767;51.344;12.362;2023-05-10T02:55:27;161790.72;;;12.21
71897;BMP280;59767;51.344;12.362;2023-05-10T02:58:36;161809.06;;;12.28
71897;BMP280;59767;51.344;12.362;2023-05-10T03:01:40;161786.78;;;12.20
71897;BMP280;59767;51.344;12.362;2023-05-10T03:04:45;161793.38;;;12.22
71897;BMP280;59767;51.344;12.362;2023-05-10T03:07:50;161794.69;;;12.23
71897;BMP280;59767;51.344;12.362;2023-05-10T03:17:54;161782.84;;;12.18
71897;BMP280;59767;51.344;12.362;2023-05-10T03:21:02;161768.47;;;12.13
71897;BMP280;59767;51.344;12.362;2023-05-10T03:24:09;161781.56;;;12.18
71897;BMP280;59767;51.344;12.362;2023-05-10T03:27:16;161765.81;;;12.12
71897;BMP280;59767;51.344;12.362;2023-05-10T03:30:21;161743.63;;;12.03
71897;BMP280;59767;51.344;12.362;2023-05-10T03:33:25;161759.34;;;12.09
71897;BMP280;59767;51.344;12.362;2023-05-10T03:36:30;161743.63;;;12.03
71897;BMP280;59767;51.344;12.362;2023-05-10T03:39:34;161742.31;;;12.03
71897;BMP280;59767;51.344;12.362;2023-05-10T03:42:38;161764.56;;;12.11
71897;BMP280;59767;51.344;12.362;2023-05-10T03:45:42;161761.94;;;12.10
71897;BMP280;59767;51.344;12.362;2023-05-10T03:48:47;161775.03;;;12.15
71897;BMP280;59767;51.344;12.362;2023-05-10T03:51:51;161758.00;;;12.09
71897;BMP280;59767;51.344;12.362;2023-05-10T03:54:55;161760.66;;;12.10
71897;BMP280;59767;51.344;12.362;2023-05-10T03:57:59;161768.47;;;12.13
71897;BMP280;59767;51.344;12.362;2023-05-10T04:01:03;161752.78;;;12.07
71897;BMP280;59767;51.344;12.362;2023-05-10T04:04:07;161768.47;;;12.13
71897;BMP280;59767;51.344;12.362;2023-05-10T04:07:12;161793.38;;;12.22
71897;BMP280;59767;51.344;12.362;2023-05-10T04:10:16;161801.19;;;12.25
71897;BMP280;59767;51.344;12.362;2023-05-10T04:13:21;161819.56;;;12.32
71897;BMP280;59767;51.344;12.362;2023-05-10T04:16:26;161811.69;;;12.29
71897;BMP280;59767;51.344;12.362;2023-05-10T04:19:31;161789.44;;;12.21
71897;BMP280;59767;51.344;12.362;2023-05-10T04:22:35;161799.88;;;12.25
71897;BMP280;59767;51.344;12.362;2023-05-10T04:25:40;161820.81;;;12.33
71897;BMP280;59767;51.344;12.362;2023-05-10T04:28:44;161826.09;;;12.35
71897;BMP280;59767;51.344;12.362;2023-05-10T04:31:48;161847.06;;;12.43
71897;BMP280;59767;51.344;12.362;2023-05-10T04:34:53;161860.13;;;12.48
71897;BMP280;59767;51.344;12.362;2023-05-10T04:37:57;161873.22;;;12.53
71897;BMP280;59767;51.344;12.362;2023-05-10T04:41:08;161886.31;;;12.58
71897;BMP280;59767;51.344;12.362;2023-05-10T04:44:13;161902.06;;;12.64
71897;BMP280;59767;51.344;12.362;2023-05-10T04:47:17;161899.41;;;12.63
71897;BMP280;59767;51.344;12.362;2023-05-10T04:50:21;161915.16;;;12.69
71897;BMP280;59767;51.344;12.362;2023-05-10T04:53:25;161940.00;;;12.78
71897;BMP280;59767;51.344;12.362;2023-05-10T04:56:29;161967.53;;;12.89
71897;BMP280;59767;51.344;12.362;2023-05-10T04:59:35;161970.13;;;12.90
71897;BMP280;59767;51.344;12.362;2023-05-10T05:02:43;162015.97;;;13.07
71897;BMP280;59767;51.344;12.362;2023-05-10T05:05:51;162056.56;;;13.23
71897;BMP280;59767;51.344;12.362;2023-05-10T05:08:55;162112.91;;;13.44
71897;BMP280;59767;51.344;12.362;2023-05-10T05:11:59;162153.53;;;13.60
71897;BMP280;59767;51.344;12.362;2023-05-10T05:15:04;162188.94;;;13.73
71897;BMP280;59767;51.344;12.362;2023-05-10T05:18:11;162243.91;;;13.94
71897;BMP280;59767;51.344;12.362;2023-05-10T05:21:17;162291.09;;;14.12
71897;BMP280;59767;51.344;12.362;2023-05-10T05:24:21;162335.63;;;14.29
71897;BMP280;59767;51.344;12.362;2023-05-10T05:27:26;162388.09;;;14.49
71897;BMP280;59767;51.344;12.362;2023-05-10T05:30:31;162436.59;;;14.68
71897;BMP280;59767;51.344;12.362;2023-05-10T05:33:36;162491.63;;;14.89
71897;BMP280;59767;51.344;12.362;2023-05-10T05:36:40;162499.47;;;14.92
71897;BMP280;59767;51.344;12.362;2023-05-10T05:39:45;162542.69;;;15.08
71897;BMP280;59767;51.344;12.362;2023-05-10T05:42:49;162557.13;;;15.14
71897;BMP280;59767;51.344;12.362;2023-05-10T05:45:53;162538.78;;;15.07
71897;BMP280;59767;51.344;12.362;2023-05-10T05:48:57;162523.06;;;15.01
71897;BMP280;59767;51.344;12.362;2023-05-10T05:52:02;162521.75;;;15.00
71897;BMP280;59767;51.344;12.362;2023-05-10T05:55:07;162533.56;;;15.05
71897;BMP280;59767;51.344;12.362;2023-05-10T05:58:11;162549.31;;;15.11
71897;BMP280;59767;51.344;12.362;2023-05-10T06:01:15;162587.31;;;15.25
71897;BMP280;59767;51.344;12.362;2023-05-10T06:04:19;162549.31;;;15.11
71897;BMP280;59767;51.344;12.362;2023-05-10T06:07:23;162547.97;;;15.10
71897;BMP280;59767;51.344;12.362;2023-05-10T06:10:28;162545.34;;;15.09
71897;BMP280;59767;51.344;12.362;2023-05-10T06:13:32;162541.41;;;15.08
71897;BMP280;59767;51.344;12.362;2023-05-10T06:16:37;162592.53;;;15.27
71897;BMP280;59767;51.344;12.362;2023-05-10T06:19:41;162557.13;;;15.14
71897;BMP280;59767;51.344;12.362;2023-05-10T06:22:45;162529.63;;;15.03
71897;BMP280;59767;51.344;12.362;2023-05-10T06:25:49;162549.31;;;15.11
71897;BMP280;59767;51.344;12.362;2023-05-10T06:28:53;162557.13;;;15.14
71897;BMP280;59767;51.344;12.362;2023-05-10T06:31:58;162601.69;;;15.31
71897;BMP280;59767;51.344;12.362;2023-05-10T06:35:03;162651.53;;;15.50
71897;BMP280;59767;51.344;12.362;2023-05-10T06:38:10;162717.06;;;15.75
71897;BMP280;59767;51.344;12.362;2023-05-10T06:41:14;162795.78;;;16.05
71897;BMP280;59767;51.344;12.362;2023-05-10T06:44:19;162824.66;;;16.16
71897;BMP280;59767;51.344;12.362;2023-05-10T06:47:23;162968.94;;;16.71
71897;BMP280;59767;51.344;12.362;2023-05-10T06:50:27;163088.28;;;17.16
71897;BMP280;59767;51.344;12.362;2023-05-10T06:53:31;163125.06;;;17.30
71897;BMP280;59767;51.344;12.362;2023-05-10T06:56:35;163012.22;;;16.87
71897;BMP280;59767;51.344;12.362;2023-05-10T06:59:40;163075.16;;;17.11
71897;BMP280;59767;51.344;12.362;2023-05-10T07:02:45;163089.59;;;17.17
71897;BMP280;59767;51.344;12.362;2023-05-10T07:05:49;163097.50;;;17.20
71897;BMP280;59767;51.344;12.362;2023-05-10T07:08:53;163055.50;;;17.04
71897;BMP280;59767;51.344;12.362;2023-05-10T07:11:57;163114.53;;;17.26
71897;BMP280;59767;51.344;12.362;2023-05-10T07:15:02;163152.59;;;17.41
71897;BMP280;59767;51.344;12.362;2023-05-10T07:18:07;163176.19;;;17.50
71897;BMP280;59767;51.344;12.362;2023-05-10T07:21:12;163247.09;;;17.77
71897;BMP280;59767;51.344;12.362;2023-05-10T07:24:16;163308.75;;;18.00
71897;BMP280;59767;51.344;12.362;2023-05-10T07:27:20;163379.63;;;18.27
71897;BMP280;59767;51.344;12.362;2023-05-10T07:30:24;163451.84;;;18.55
71897;BMP280;59767;51.344;12.362;2023-05-10T07:33:28;163579.19;;;19.03
71897;BMP280;59767;51.344;12.362;2023-05-10T07:36:32;163703.91;;;19.50
71897;BMP280;59767;51.344;12.362;2023-05-10T07:39:37;163852.38;;;20.07
71897;BMP280;59767;51.344;12.362;2023-05-10T07:42:41;163935.09;;;20.38
71897;BMP280;59767;51.344;12.362;2023-05-10T07:45:45;164061.25;;;20.86
71897;BMP280;59767;51.344;12.362;2023-05-10T07:48:49;164124.31;;;21.10
71897;BMP280;59767;51.344;12.362;2023-05-10T07:51:53;164011.28;;;20.67
71897;BMP280;59767;51.344;12.362;2023-05-10T07:54:57;163832.66;;;19.99
71897;BMP280;59767;51.344;12.362;2023-05-10T07:58:01;163707.88;;;19.52
71897;BMP280;59767;51.344;12.362;2023-05-10T08:01:06;163587.03;;;19.06
71897;BMP280;59767;51.344;12.362;2023-05-10T08:04:10;163546.38;;;18.91
71897;BMP280;59767;51.344;12.362;2023-05-10T08:07:15;163596.28;;;19.10
71897;BMP280;59767;51.344;12.362;2023-05-10T08:10:19;163555.56;;;18.94
71897;BMP280;59767;51.344;12.362;2023-05-10T08:13:23;163554.22;;;18.94
71897;BMP280;59767;51.344;12.362;2023-05-10T08:16:28;163514.91;;;18.79
71897;BMP280;59767;51.344;12.362;2023-05-10T08:19:33;163526.72;;;18.83
71897;BMP280;59767;51.344;12.362;2023-05-10T08:22:37;163528.03;;;18.84
71897;BMP280;59767;51.344;12.362;2023-05-10T08:25:41;163533.22;;;18.86
71897;BMP280;59767;51.344;12.362;2023-05-10T08:28:45;163463.66;;;18.59
71897;BMP280;59767;51.344;12.362;2023-05-10T08:31:50;163467.63;;;18.61
71897;BMP280;59767;51.344;12.362;2023-05-10T08:34:55;163416.38;;;18.41
71897;BMP280;59767;51.344;12.362;2023-05-10T08:38:00;163369.16;;;18.23
71897;BMP280;59767;51.344;12.362;2023-05-10T08:41:04;163363.88;;;18.21
71897;BMP280;59767;51.344;12.362;2023-05-10T08:44:09;163302.19;;;17.98
71897;BMP280;59767;51.344;12.362;2023-05-10T08:47:18;163287.78;;;17.92
71897;BMP280;59767;51.344;12.362;2023-05-10T08:50:22;163184.09;;;17.53
71897;BMP280;59767;51.344;12.362;2023-05-10T08:53:28;163201.19;;;17.59
71897;BMP280;59767;51.344;12.362;2023-05-10T08:56:35;163252.31;;;17.79
71897;BMP280;59767;51.344;12.362;2023-05-10T08:59:40;163251.03;;;17.78
71897;BMP280;59767;51.344;12.362;2023-05-10T09:02:44;163156.56;;;17.42
71897;BMP280;59767;51.344;12.362;2023-05-10T09:05:50;163079.09;;;17.13
71897;BMP280;59767;51.344;12.362;2023-05-10T09:08:54;163088.28;;;17.16
71897;BMP280;59767;51.344;12.362;2023-05-10T09:11:59;163039.75;;;16.98
71897;BMP280;59767;51.344;12.362;2023-05-10T09:15:04;162974.19;;;16.73
71897;BMP280;59767;51.344;12.362;2023-05-10T09:18:09;162953.22;;;16.65
71897;BMP280;59767;51.344;12.362;2023-05-10T09:21:13;162917.75;;;16.51
71897;BMP280;59767;51.344;12.362;2023-05-10T09:24:17;162923.00;;;16.53
71897;BMP280;59767;51.344;12.362;2023-05-10T09:27:28;162886.31;;;16.39
71897;BMP280;59767;51.344;12.362;2023-05-10T09:30:31;162808.91;;;16.10
71897;BMP280;59767;51.344;12.362;2023-05-10T09:33:47;162731.53;;;15.80
71897;BMP280;59767;51.344;12.362;2023-05-10T09:36:59;162723.69;;;15.77
71897;BMP280;59767;51.344;12.362;2023-05-10T09:40:11;162683.06;;;15.62
71897;BMP280;59767;51.344;12.362;2023-05-10T09:43:15;162630.53;;;15.42
71897;BMP280;59767;51.344;12.362;2023-05-10T09:46:19;162656.78;;;15.52
71897;BMP280;59767;51.344;12.362;2023-05-10T09:49:24;162646.31;;;15.48
71897;BMP280;59767;51.344;12.362;2023-05-10T09:52:28;162633.22;;;15.43
71897;BMP280;59767;51.344;12.362;2023-05-10T09:58:40;162596.47;;;15.29
71897;BMP280;59767;51.344;12.362;2023-05-10T10:01:50;162621.41;;;15.38
71897;BMP280;59767;51.344;12.362;2023-05-10T10:04:55;162589.91;;;15.26
71897;BMP280;59767;51.344;12.362;2023-05-10T10:07:59;162606.97;;;15.33
71897;BMP280;59767;51.344;12.362;2023-05-10T10:11:04;162621.41;;;15.38
71897;BMP280;59767;51.344;12.362;2023-05-10T10:14:08;162655.44;;;15.51
71897;BMP280;59767;51.344;12.362;2023-05-10T10:17:13;162667.28;;;15.56
71897;BMP280;59767;51.344;12.362;2023-05-10T10:20:18;162688.22;;;15.64
71897;BMP280;59767;51.344;12.362;2023-05-10T10:23:23;162734.16;;;15.81
71897;BMP280;59767;51.344;12.362;2023-05-10T10:26:27;162698.72;;;15.68
71897;BMP280;59767;51.344;12.362;2023-05-10T10:29:49;162725.03;;;15.78
71897;BMP280;59767;51.344;12.362;2023-05-10T10:33:26;162717.06;;;15.75
71897;BMP280;59767;51.344;12.362;2023-05-10T10:36:39;162705.28;;;15.70
71897;BMP280;59767;51.344;12.362;2023-05-10T10:39:43;162717.06;;;15.75
71897;BMP280;59767;51.344;12.362;2023-05-10T10:42:48;162745.97;;;15.86
71897;BMP280;59767;51.344;12.362;2023-05-10T10:46:13;162740.69;;;15.84
71897;BMP280;59767;51.344;12.362;2023-05-10T10:49:18;162725.03;;;15.78
71897;BMP280;59767;51.344;12.362;2023-05-10T10:52:27;162745.97;;;15.86
71897;BMP280;59767;51.344;12.362;2023-05-10T10:55:46;162717.06;;;15.75
71897;BMP280;59767;51.344;12.362;2023-05-10T10:58:51;162725.03;;;15.78
71897;BMP280;59767;51.344;12.362;2023-05-10T11:01:57;162743.31;;;15.85
71897;BMP280;59767;51.344;12.362;2023-05-10T11:08:34;162739.41;;;15.83
71897;BMP280;59767;51.344;12.362;2023-05-10T11:11:50;162736.81;;;15.82
71897;BMP280;59767;51.344;12.362;2023-05-10T11:14:57;162711.91;;;15.73
71897;BMP280;59767;51.344;12.362;2023-05-10T11:18:20;162690.88;;;15.65
71897;BMP280;59767;51.344;12.362;2023-05-10T11:21:27;162688.22;;;15.64
71897;BMP280;59767;51.344;12.362;2023-05-10T11:24:31;162686.94;;;15.63
71897;BMP280;59767;51.344;12.362;2023-05-10T11:27:37;162690.88;;;15.65
71897;BMP280;59767;51.344;12.362;2023-05-10T11:30:43;162702.69;;;15.69
71897;BMP280;59767;51.344;12.362;2023-05-10T11:33:51;162701.34;;;15.69
71897;BMP280;59767;51.344;12.362;2023-05-10T11:36:56;162683.06;;;15.62
71897;BMP280;59767;51.344;12.362;2023-05-10T11:40:00;162723.69;;;15.77
71897;BMP280;59767;51.344;12.362;2023-05-10T11:43:05;162751.19;;;15.88
71897;BMP280;59767;51.344;12.362;2023-05-10T11:46:10;162757.75;;;15.90
71897;BMP280;59767;51.344;12.362;2023-05-10T11:49:15;162753.88;;;15.89
71897;BMP280;59767;51.344;12.362;2023-05-10T11:52:19;162797.06;;;16.05
71897;BMP280;59767;51.344;12.362;2023-05-10T11:55:24;162785.28;;;16.01
71897;BMP280;59767;51.344;12.362;2023-05-10T11:58:28;162811.53;;;16.11
71897;BMP280;59767;51.344;12.362;2023-05-10T12:01:32;162822.03;;;16.15
71897;BMP280;59767;51.344;12.362;2023-05-10T12:04:37;162753.88;;;15.89
71897;BMP280;59767;51.344;12.362;2023-05-10T12:07:42;162774.81;;;15.97
71897;BMP280;59767;51.344;12.362;2023-05-10T12:10:46;162822.03;;;16.15
71897;BMP280;59767;51.344;12.362;2023-05-10T12:13:50;162803.69;;;16.08
71897;BMP280;59767;51.344;12.362;2023-05-10T12:16:57;162801.03;;;16.07
71897;BMP280;59767;51.344;12.362;2023-05-10T12:20:15;162812.81;;;16.11
71897;BMP280;59767;51.344;12.362;2023-05-10T12:23:22;162845.66;;;16.24
71897;BMP280;59767;51.344;12.362;2023-05-10T12:26:27;162866.63;;;16.32
71897;BMP280;59767;51.344;12.362;2023-05-10T12:29:31;162849.59;;;16.25
71897;BMP280;59767;51.344;12.362;2023-05-10T12:32:40;162858.72;;;16.29
71897;BMP280;59767;51.344;12.362;2023-05-10T12:35:51;162852.16;;;16.26
71897;BMP280;59767;51.344;12.362;2023-05-10T12:39:02;162862.69;;;16.30
71897;BMP280;59767;51.344;12.362;2023-05-10T12:42:06;162867.91;;;16.32
71897;BMP280;59767;51.344;12.362;2023-05-10T12:45:11;162899.44;;;16.44
71897;BMP280;59767;51.344;12.362;2023-05-10T12:48:15;162929.56;;;16.56
71897;BMP280;59767;51.344;12.362;2023-05-10T12:51:19;162934.81;;;16.58
71897;BMP280;59767;51.344;12.362;2023-05-10T12:54:26;162951.88;;;16.64
71897;BMP280;59767;51.344;12.362;2023-05-10T12:57:30;162928.28;;;16.55
71897;BMP280;59767;51.344;12.362;2023-05-10T13:00:34;163010.91;;;16.87
71897;BMP280;59767;51.344;12.362;2023-05-10T13:03:39;162991.25;;;16.79
71897;BMP280;59767;51.344;12.362;2023-05-10T13:06:43;163004.34;;;16.84
71897;BMP280;59767;51.344;12.362;2023-05-10T13:09:47;163026.63;;;16.93
71897;BMP280;59767;51.344;12.362;2023-05-10T13:12:52;163066.03;;;17.08
71897;BMP280;59767;51.344;12.362;2023-05-10T13:15:56;163047.66;;;17.01
71897;BMP280;59767;51.344;12.362;2023-05-10T13:19:00;163066.03;;;17.08
71897;BMP280;59767;51.344;12.362;2023-05-10T13:22:04;163089.59;;;17.17
71897;BMP280;59767;51.344;12.362;2023-05-10T13:25:08;163013.50;;;16.88
71897;BMP280;59767;51.344;12.362;2023-05-10T13:28:12;163094.91;;;17.19
71897;BMP280;59767;51.344;12.362;2023-05-10T13:31:16;163085.72;;;17.15
71897;BMP280;59767;51.344;12.362;2023-05-10T13:34:21;163153.88;;;17.41
71897;BMP280;59767;51.344;12.362;2023-05-10T13:37:25;163111.97;;;17.25
71897;BMP280;59767;51.344;12.362;2023-05-10T13:40:29;163157.84;;;17.43
71897;BMP280;59767;51.344;12.362;2023-05-10T13:43:33;163094.91;;;17.19
71897;BMP280;59767;51.344;12.362;2023-05-10T13:46:39;163100.06;;;17.21
71897;BMP280;59767;51.344;12.362;2023-05-10T13:49:43;163107.97;;;17.24
71897;BMP280;59767;51.344;12.362;2023-05-10T13:52:47;163114.53;;;17.26
71897;BMP280;59767;51.344;12.362;2023-05-10T13:55:51;163126.34;;;17.31
71897;BMP280;59767;51.344;12.362;2023-05-10T13:58:56;163135.56;;;17.34
71897;BMP280;59767;51.344;12.362;2023-05-10T14:02:00;163121.09;;;17.29
71897;BMP280;59767;51.344;12.362;2023-05-10T14:05:08;163077.81;;;17.12
71897;BMP280;59767;51.344;12.362;2023-05-10T14:08:12;163034.53;;;16.96
71897;BMP280;59767;51.344;12.362;2023-05-10T14:11:17;163021.41;;;16.91
71897;BMP280;59767;51.344;12.362;2023-05-10T14:14:21;163014.84;;;16.88
71897;BMP280;59767;51.344;12.362;2023-05-10T14:17:25;162992.53;;;16.80
71897;BMP280;59767;51.344;12.362;2023-05-10T14:20:29;162971.50;;;16.72
71897;BMP280;59767;51.344;12.362;2023-05-10T14:23:33;162966.34;;;16.70
71897;BMP280;59767;51.344;12.362;2023-05-10T14:26:38;162954.50;;;16.65
71897;BMP280;59767;51.344;12.362;2023-05-10T14:29:42;162928.28;;;16.55
71897;BMP280;59767;51.344;12.362;2023-05-10T14:32:46;162903.38;;;16.46
71897;BMP280;59767;51.344;12.362;2023-05-10T14:35:50;162905.94;;;16.47
71897;BMP280;59767;51.344;12.362;2023-05-10T14:38:54;162909.91;;;16.48
71897;BMP280;59767;51.344;12.362;2023-05-10T14:41:58;162913.84;;;16.50
71897;BMP280;59767;51.344;12.362;2023-05-10T14:45:03;162921.69;;;16.53
71897;BMP280;59767;51.344;12.362;2023-05-10T14:48:08;162908.56;;;16.48
71897;BMP280;59767;51.344;12.362;2023-05-10T14:51:14;162879.69;;;16.37
71897;BMP280;59767;51.344;12.362;2023-05-10T14:54:19;162858.72;;;16.29
71897;BMP280;59767;51.344;12.362;2023-05-10T14:57:23;162835.16;;;16.20
71897;BMP280;59767;51.344;12.362;2023-05-10T15:00:28;162840.38;;;16.22
71897;BMP280;59767;51.344;12.362;2023-05-10T15:03:33;162808.91;;;16.10
71897;BMP280;59767;51.344;12.362;2023-05-10T15:06:38;162760.38;;;15.91
71897;BMP280;59767;51.344;12.362;2023-05-10T15:09:42;162731.53;;;15.80
71897;BMP280;59767;51.344;12.362;2023-05-10T15:12:46;162740.69;;;15.84
71897;BMP280;59767;51.344;12.362;2023-05-10T15:15:50;162727.59;;;15.79
71897;BMP280;59767;51.344;12.362;2023-05-10T15:18:55;162704.00;;;15.70
71897;BMP280;59767;51.344;12.362;2023-05-10T15:21:59;162679.13;;;15.60
71897;BMP280;59767;51.344;12.362;2023-05-10T15:25:04;162635.81;;;15.44
71897;BMP280;59767;51.344;12.362;2023-05-10T15:28:08;162621.41;;;15.38
71897;BMP280;59767;51.344;12.362;2023-05-10T15:31:12;162601.69;;;15.31
71897;BMP280;59767;51.344;12.362;2023-05-10T15:34:17;162601.69;;;15.31
71897;BMP280;59767;51.344;12.362;2023-05-10T15:37:21;162608.31;;;15.33
71897;BMP280;59767;51.344;12.362;2023-05-10T15:40:27;162626.66;;;15.40
71897;BMP280;59767;51.344;12.362;2023-05-10T15:43:31;162625.38;;;15.40
71897;BMP280;59767;51.344;12.362;2023-05-10T15:46:35;162637.16;;;15.44
71897;BMP280;59767;51.344;12.362;2023-05-10T15:49:41;162650.25;;;15.49
71897;BMP280;59767;51.344;12.362;2023-05-10T15:52:45;162639.75;;;15.45
71897;BMP280;59767;51.344;12.362;2023-05-10T15:55:50;162646.31;;;15.48
71897;BMP280;59767;51.344;12.362;2023-05-10T15:58:54;162643.66;;;15.47
71897;BMP280;59767;51.344;12.362;2023-05-10T16:01:59;162635.81;;;15.44
71897;BMP280;59767;51.344;12.362;2023-05-10T16:05:03;162659.38;;;15.53
71897;BMP280;59767;51.344;12.362;2023-05-10T16:08:07;162669.94;;;15.57
71897;BMP280;59767;51.344;12.362;2023-05-10T16:11:11;162685.63;;;15.63
71897;BMP280;59767;51.344;12.362;2023-05-10T16:14:16;162669.94;;;15.57
71897;BMP280;59767;51.344;12.362;2023-05-10T16:17:20;162676.44;;;15.59
71897;BMP280;59767;51.344;12.362;2023-05-10T16:20:24;162696.16;;;15.67
71897;BMP280;59767;51.344;12.362;2023-05-10T16:23:28;162725.03;;;15.78
71897;BMP280;59767;51.344;12.362;2023-05-10T16:26:32;162735.47;;;15.82
71897;BMP280;59767;51.344;12.362;2023-05-10T16:29:43;162726.25;;;15.78
71897;BMP280;59767;51.344;12.362;2023-05-10T16:32:47;162745.97;;;15.86
71897;BMP280;59767;51.344;12.362;2023-05-10T16:35:52;162752.53;;;15.88
71897;BMP280;59767;51.344;12.362;2023-05-10T16:38:56;162757.75;;;15.90
71897;BMP280;59767;51.344;12.362;2023-05-10T16:42:00;162765.66;;;15.93
71897;BMP280;59767;51.344;12.362;2023-05-10T16:45:05;162752.53;;;15.88
71897;BMP280;59767;51.344;12.362;2023-05-10T16:48:12;162744.66;;;15.85
71897;BMP280;59767;51.344;12.362;2023-05-10T16:51:17;162752.53;;;15.88
71897;BMP280;59767;51.344;12.362;2023-05-10T16:54:21;162751.19;;;15.88
71897;BMP280;59767;51.344;12.362;2023-05-10T16:57:26;162753.88;;;15.89
71897;BMP280;59767;51.344;12.362;2023-05-10T17:00:30;162743.31;;;15.85
71897;BMP280;59767;51.344;12.362;2023-05-10T17:03:34;162731.53;;;15.80
71897;BMP280;59767;51.344;12.362;2023-05-10T17:06:39;162734.16;;;15.81
71897;BMP280;59767;51.344;12.362;2023-05-10T17:09:45;162718.41;;;15.75
71897;BMP280;59767;51.344;12.362;2023-05-10T17:12:49;162711.91;;;15.73
71897;BMP280;59767;51.344;12.362;2023-05-10T17:15:54;162701.34;;;15.69
71897;BMP280;59767;51.344;12.362;2023-05-10T17:18:59;162700.06;;;15.68
71897;BMP280;59767;51.344;12.362;2023-05-10T17:22:03;162690.88;;;15.65
71897;BMP280;59767;51.344;12.362;2023-05-10T17:25:08;162692.16;;;15.65
71897;BMP280;59767;51.344;12.362;2023-05-10T17:28:12;162686.94;;;15.63
71897;BMP280;59767;51.344;12.362;2023-05-10T17:31:16;162686.94;;;15.63
71897;BMP280;59767;51.344;12.362;2023-05-10T17:34:21;162680.41;;;15.61
71897;BMP280;59767;51.344;12.362;2023-05-10T17:37:25;162681.72;;;15.61
71897;BMP280;59767;51.344;12.362;2023-05-10T17:40:29;162675.16;;;15.59
71897;BMP280;59767;51.344;12.362;2023-05-10T17:43:34;162672.50;;;15.58